createdAt,value
2018-09-03T00:00:43.150Z,10.25
2018-09-03T00:03:12.325Z,11.20
2018-09-03T00:05:40.617Z,10.55
2018-09-03T00:08:08.926Z,11.33
2018-09-03T00:10:37.665Z,9.85
2018-09-03T00:13:06.098Z,10.60
2018-09-03T00:15:34.403Z,10.03
2018-09-03T00:18:02.770Z,10.75
2018-09-03T00:20:31.094Z,9.63
2018-09-03T00:23:00.780Z,9.08
2018-09-03T00:25:29.470Z,11.73
2018-09-03T00:27:57.790Z,9.58
2018-09-03T00:30:26.033Z,8.80
2018-09-03T00:33:00.014Z,9.53
2018-09-03T00:35:33.460Z,9.33
2018-09-03T00:38:08.028Z,10.30
2018-09-03T00:40:41.617Z,9.03
2018-09-03T00:43:15.421Z,9.78
2018-09-03T00:45:49.073Z,9.15
2018-09-03T00:48:17.707Z,10.08
2018-09-03T00:50:45.938Z,8.75
2018-09-03T00:53:14.193Z,9.50
2018-09-03T00:55:42.989Z,8.73
2018-09-03T00:58:11.330Z,8.78
2018-09-03T01:00:39.647Z,9.45
2018-09-03T01:03:08.130Z,9.18
2018-09-03T01:05:36.450Z,9.00
2018-09-03T01:08:04.693Z,10.23
2018-09-03T01:10:33.371Z,8.85
2018-09-03T01:13:01.608Z,8.58
2018-09-03T01:15:30.373Z,8.85
2018-09-03T01:18:00.831Z,9.45
2018-09-03T01:20:29.290Z,9.20
2018-09-03T01:22:57.530Z,8.43
2018-09-03T01:25:26.110Z,8.60
2018-09-03T01:27:54.341Z,8.13
2018-09-03T01:30:22.574Z,8.90
2018-09-03T01:32:51.247Z,8.53
2018-09-03T01:35:19.477Z,9.13
2018-09-03T01:37:47.769Z,9.23
2018-09-03T01:40:16.782Z,8.35
2018-09-03T01:42:45.085Z,8.43
2018-09-03T01:45:13.403Z,8.25
2018-09-03T01:47:41.934Z,7.62
2018-09-03T01:50:10.226Z,7.83
2018-09-03T01:52:38.455Z,7.50
2018-09-03T01:55:07.075Z,8.60
2018-09-03T01:57:35.381Z,8.03
2018-09-03T02:00:03.866Z,8.23
2018-09-03T02:02:32.160Z,7.58
2018-09-03T02:05:01.610Z,7.20
2018-09-03T02:07:29.855Z,7.92
2018-09-03T02:09:58.361Z,7.47
2018-09-03T02:12:26.589Z,8.10
2018-09-03T02:14:54.894Z,8.45
2018-09-03T02:17:23.411Z,7.95
2018-09-03T02:19:51.646Z,8.03
2018-09-03T02:22:19.870Z,7.62
2018-09-03T02:24:48.439Z,7.47
2018-09-03T02:27:16.745Z,7.67
2018-09-03T02:29:45.038Z,7.65
2018-09-03T02:32:13.429Z,7.33
2018-09-03T02:34:41.717Z,7.60
2018-09-03T02:37:09.954Z,7.65
2018-09-03T02:39:38.514Z,7.55
2018-09-03T02:42:06.755Z,6.90
2018-09-03T02:44:35.058Z,7.58
2018-09-03T02:47:04.058Z,7.53
2018-09-03T02:49:32.283Z,6.55
2018-09-03T02:52:00.583Z,6.95
2018-09-03T02:54:28.871Z,7.83
2018-09-03T02:56:57.165Z,6.80
2018-09-03T02:59:25.398Z,7.47
2018-09-03T03:01:56.107Z,6.60
2018-09-03T03:04:24.334Z,6.97
2018-09-03T03:06:53.333Z,7.08
2018-09-03T03:09:21.616Z,7.22
2018-09-03T03:11:49.999Z,6.87
2018-09-03T03:14:18.222Z,7.30
2018-09-03T03:16:46.495Z,6.87
2018-09-03T03:19:14.730Z,7.00
2018-09-03T03:21:43.038Z,6.67
2018-09-03T03:24:11.595Z,6.78
2018-09-03T03:26:39.858Z,6.45
2018-09-03T03:29:08.167Z,6.87
2018-09-03T03:31:36.439Z,6.67
2018-09-03T03:34:05.134Z,6.65
2018-09-03T03:36:33.369Z,6.78
2018-09-03T03:39:01.652Z,6.47
2018-09-03T03:41:29.874Z,6.65
2018-09-03T03:43:58.172Z,7.03
2018-09-03T03:46:27.199Z,6.37
2018-09-03T03:48:55.498Z,6.87
2018-09-03T03:51:23.805Z,7.00
2018-09-03T03:53:52.442Z,6.05
2018-09-03T03:56:20.679Z,6.50
2018-09-03T03:58:49.169Z,6.30
2018-09-03T04:01:18.814Z,6.50
2018-09-03T04:03:47.045Z,6.12
2018-09-03T04:06:15.353Z,5.83
2018-09-03T04:08:45.078Z,5.95
2018-09-03T04:11:13.328Z,5.72
2018-09-03T04:13:41.558Z,5.80
2018-09-03T04:16:10.415Z,5.83
2018-09-03T04:18:38.734Z,5.60
2018-09-03T04:21:06.982Z,6.00
2018-09-03T04:23:35.338Z,5.95
2018-09-03T04:26:03.664Z,5.70
2018-09-03T04:28:31.911Z,6.40
2018-09-03T04:31:01.111Z,6.20
2018-09-03T04:33:29.325Z,5.65
2018-09-03T04:35:57.662Z,5.65
2018-09-03T04:38:26.142Z,5.90
2018-09-03T04:40:54.375Z,5.67
2018-09-03T04:43:22.610Z,5.83
2018-09-03T04:45:51.290Z,6.17
2018-09-03T04:48:19.497Z,6.10
2018-09-03T04:50:47.718Z,5.75
2018-09-03T04:53:16.925Z,9.23
2018-09-03T04:55:45.230Z,9.93
2018-09-03T04:58:13.579Z,6.00
2018-09-03T05:00:42.487Z,8.05
2018-09-03T05:03:10.717Z,7.40
2018-09-03T05:05:40.875Z,7.42
2018-09-03T05:08:09.559Z,8.73
2018-09-03T05:10:38.087Z,6.78
2018-09-03T05:13:06.398Z,5.53
2018-09-03T05:15:35.091Z,5.95
2018-09-03T05:18:03.355Z,11.90
2018-09-03T05:20:31.822Z,14.07
2018-09-03T05:23:02.499Z,14.45
2018-09-03T05:25:30.846Z,7.70
2018-09-03T05:27:59.083Z,12.37
2018-09-03T05:30:27.635Z,9.68
2018-09-03T05:32:56.044Z,8.70
2018-09-03T05:35:24.278Z,9.73
2018-09-03T05:37:53.283Z,9.93
2018-09-03T05:40:21.518Z,9.03
2018-09-03T05:42:49.934Z,9.73
2018-09-03T05:45:18.626Z,7.17
2018-09-03T05:47:46.871Z,6.55
2018-09-03T05:50:15.353Z,8.23
2018-09-03T05:52:43.962Z,8.43
2018-09-03T05:55:12.407Z,8.30
2018-09-03T05:57:40.711Z,8.50
2018-09-03T06:00:09.506Z,12.25
2018-09-03T06:02:37.810Z,7.25
2018-09-03T06:05:06.294Z,8.00
2018-09-03T06:07:34.755Z,8.48
2018-09-03T06:10:03.019Z,6.58
2018-09-03T06:12:31.734Z,8.65
2018-09-03T06:15:00.406Z,7.55
2018-09-03T06:17:28.650Z,5.83
2018-09-03T06:19:56.882Z,9.40
2018-09-03T06:22:26.258Z,8.53
2018-09-03T06:24:54.650Z,6.17
2018-09-03T06:27:22.903Z,7.78
2018-09-03T06:29:51.211Z,5.72
2018-09-03T06:32:19.537Z,5.33
2018-09-03T06:34:47.767Z,7.37
2018-09-03T06:37:16.653Z,7.55
2018-09-03T06:39:44.867Z,7.33
2018-09-03T06:42:13.122Z,7.60
2018-09-03T06:44:41.453Z,5.03
2018-09-03T06:47:09.683Z,6.28
2018-09-03T06:49:38.019Z,5.35
2018-09-03T06:52:06.813Z,6.80
2018-09-03T06:54:35.030Z,5.30
2018-09-03T06:57:03.279Z,5.35
2018-09-03T06:59:32.573Z,7.05
2018-09-03T07:02:00.783Z,5.17
2018-09-03T07:04:29.018Z,7.58
2018-09-03T07:06:57.598Z,6.65
2018-09-03T07:09:25.837Z,5.47
2018-09-03T07:11:54.169Z,4.72
2018-09-03T07:14:23.728Z,6.55
2018-09-03T07:16:52.027Z,4.25
2018-09-03T07:19:20.351Z,5.33
2018-09-03T07:21:49.623Z,4.33
2018-09-03T07:24:17.859Z,5.20
2018-09-03T07:26:46.090Z,5.62
2018-09-03T07:29:14.395Z,5.83
2018-09-03T07:31:42.629Z,4.90
2018-09-03T07:34:10.866Z,4.55
2018-09-03T07:36:39.272Z,5.65
2018-09-03T07:39:08.415Z,4.40
2018-09-03T07:41:36.979Z,4.22
2018-09-03T07:44:05.641Z,5.28
2018-09-03T07:46:34.059Z,4.62
2018-09-03T07:49:02.308Z,5.15
2018-09-03T07:51:31.246Z,3.55
2018-09-03T07:53:59.471Z,6.25
2018-09-03T07:56:27.714Z,3.35
2018-09-03T07:58:57.046Z,6.47
2018-09-03T08:01:25.298Z,4.85
2018-09-03T08:03:55.443Z,6.83
2018-09-03T08:06:23.696Z,3.77
2018-09-03T08:08:52.011Z,5.35
2018-09-03T08:11:20.582Z,7.62
2018-09-03T08:13:48.823Z,8.75
2018-09-03T08:16:17.311Z,8.38
2018-09-03T08:18:45.698Z,7.62
2018-09-03T08:21:13.930Z,5.47
2018-09-03T08:23:42.185Z,4.62
2018-09-03T08:26:11.164Z,5.70
2018-09-03T08:28:39.482Z,5.72
2018-09-03T08:31:07.877Z,3.92
2018-09-03T08:33:36.294Z,5.20
2018-09-03T08:36:04.599Z,5.42
2018-09-03T08:38:32.942Z,4.90
2018-09-03T08:41:01.842Z,5.05
2018-09-03T08:43:30.321Z,3.58
2018-09-03T08:45:58.596Z,6.03
2018-09-03T08:48:27.190Z,5.10
2018-09-03T08:50:55.444Z,5.33
2018-09-03T08:53:23.665Z,4.87
2018-09-03T08:55:52.635Z,4.87
2018-09-03T08:58:20.878Z,6.10
2018-09-03T09:00:49.127Z,5.37
2018-09-03T09:03:22.890Z,4.17
2018-09-03T09:05:51.170Z,6.05
2018-09-03T09:08:19.465Z,4.17
2018-09-03T09:10:48.747Z,4.78
2018-09-03T09:13:19.114Z,3.47
2018-09-03T09:15:48.182Z,4.90
2018-09-03T09:18:17.313Z,5.65
2018-09-03T09:20:45.999Z,3.90
2018-09-03T09:23:14.527Z,6.08
2018-09-03T09:25:42.846Z,4.10
2018-09-03T09:28:11.155Z,6.50
2018-09-03T09:30:40.698Z,2.98
2018-09-03T09:33:09.158Z,3.58
2018-09-03T09:35:37.479Z,5.15
2018-09-03T09:38:06.351Z,6.62
2018-09-03T09:40:34.866Z,6.75
2018-09-03T09:43:03.190Z,8.48
2018-09-03T09:45:31.695Z,6.12
2018-09-03T09:48:00.046Z,6.72
2018-09-03T09:50:28.292Z,5.17
2018-09-03T09:52:58.875Z,6.22
2018-09-03T09:55:27.286Z,5.20
2018-09-03T09:57:55.615Z,6.40
2018-09-03T10:00:29.444Z,6.08
2018-09-03T10:02:57.717Z,5.75
2018-09-03T10:05:25.963Z,4.83
2018-09-03T10:07:54.552Z,5.75
2018-09-03T10:10:22.791Z,7.40
2018-09-03T10:12:51.125Z,6.85
2018-09-03T10:15:19.614Z,6.22
2018-09-03T10:17:47.879Z,8.45
2018-09-03T10:20:16.894Z,5.42
2018-09-03T10:22:45.180Z,5.53
2018-09-03T10:25:13.618Z,4.45
2018-09-03T10:27:41.918Z,4.55
2018-09-03T10:30:10.175Z,6.90
2018-09-03T10:32:38.475Z,3.77
2018-09-03T10:35:07.873Z,3.67
2018-09-03T10:37:36.110Z,5.25
2018-09-03T10:40:04.385Z,5.53
2018-09-03T10:42:32.809Z,3.83
2018-09-03T10:45:01.050Z,4.37
2018-09-03T10:47:29.370Z,4.40
2018-09-03T10:49:58.155Z,5.12
2018-09-03T10:52:26.403Z,3.47
2018-09-03T10:54:54.891Z,4.97
2018-09-03T10:57:23.290Z,8.45
2018-09-03T10:59:51.635Z,5.08
2018-09-03T11:02:20.054Z,42.83
2018-09-03T11:04:49.863Z,18.20
2018-09-03T11:07:18.217Z,14.23
2018-09-03T11:09:46.463Z,11.08
2018-09-03T11:12:15.101Z,9.70
2018-09-03T11:14:43.341Z,17.00
2018-09-03T11:17:11.587Z,16.10
2018-09-03T11:19:44.947Z,13.25
2018-09-03T11:22:13.819Z,18.12
2018-09-03T11:24:42.098Z,14.58
2018-09-03T11:27:11.017Z,11.45
2018-09-03T11:29:39.250Z,12.80
2018-09-03T11:32:07.495Z,10.63
2018-09-03T11:34:36.457Z,14.50
2018-09-03T11:37:04.692Z,11.88
2018-09-03T11:39:33.018Z,9.50
2018-09-03T11:42:02.713Z,8.88
2018-09-03T11:44:31.055Z,10.65
2018-09-03T11:46:59.329Z,8.65
2018-09-03T11:49:27.754Z,13.75
2018-09-03T11:51:55.998Z,8.38
2018-09-03T11:54:24.276Z,7.35
2018-09-03T11:56:52.799Z,9.80
2018-09-03T11:59:21.136Z,7.85
2018-09-03T12:01:49.546Z,8.63
2018-09-03T12:04:18.470Z,8.20
2018-09-03T12:06:46.732Z,9.73
2018-09-03T12:09:15.049Z,12.13
2018-09-03T12:11:43.325Z,8.25
2018-09-03T12:14:16.312Z,12.70
2018-09-03T12:16:45.059Z,12.47
2018-09-03T12:19:13.303Z,8.08
2018-09-03T12:21:41.609Z,10.38
2018-09-03T12:24:11.737Z,10.50
2018-09-03T12:26:40.039Z,12.43
2018-09-03T12:29:08.294Z,6.03
2018-09-03T12:31:36.592Z,18.02
2018-09-03T12:34:04.832Z,9.55
2018-09-03T12:36:33.073Z,9.58
2018-09-03T12:39:02.002Z,8.73
2018-09-03T12:41:30.340Z,12.70
2018-09-03T12:43:58.689Z,10.43
2018-09-03T12:46:27.700Z,10.43
2018-09-03T12:48:55.912Z,6.83
2018-09-03T12:51:24.190Z,10.50
2018-09-03T12:53:52.598Z,10.10
2018-09-03T12:56:20.846Z,10.00
2018-09-03T12:58:49.167Z,9.50
2018-09-03T13:01:17.391Z,11.28
2018-09-03T13:03:45.657Z,19.67
2018-09-03T13:06:13.964Z,8.70
2018-09-03T13:08:42.693Z,13.58
2018-09-03T13:11:10.939Z,18.82
2018-09-03T13:13:39.203Z,13.60
2018-09-03T13:16:07.995Z,12.37
2018-09-03T13:18:36.319Z,12.98
2018-09-03T13:21:04.643Z,13.50
2018-09-03T13:23:33.535Z,9.18
2018-09-03T13:26:02.634Z,11.12
2018-09-03T13:28:31.114Z,14.38
2018-09-03T13:30:59.820Z,10.65
2018-09-03T13:33:28.162Z,11.10
2018-09-03T13:35:56.419Z,12.18
2018-09-03T13:38:25.056Z,9.13
2018-09-03T13:40:53.410Z,10.63
2018-09-03T13:43:21.642Z,9.70
2018-09-03T13:45:50.911Z,17.02
2018-09-03T13:48:19.402Z,16.27
2018-09-03T13:50:47.621Z,11.90
2018-09-03T13:53:16.346Z,10.75
2018-09-03T13:55:44.655Z,14.55
2018-09-03T13:58:13.093Z,9.40
2018-09-03T14:00:41.828Z,13.98
2018-09-03T14:03:10.055Z,8.55
2018-09-03T14:05:39.988Z,11.97
2018-09-03T14:08:08.780Z,8.20
2018-09-03T14:10:37.026Z,11.53
2018-09-03T14:13:05.278Z,11.97
2018-09-03T14:15:33.812Z,12.05
2018-09-03T14:18:02.060Z,7.58
2018-09-03T14:20:30.428Z,6.25
2018-09-03T14:22:59.454Z,7.28
2018-09-03T14:25:27.911Z,11.15
2018-09-03T14:27:56.683Z,10.20
2018-09-03T14:30:25.437Z,6.58
2018-09-03T14:32:53.698Z,7.20
2018-09-03T14:35:22.054Z,8.00
2018-09-03T14:37:50.569Z,9.45
2018-09-03T14:40:18.814Z,8.55
2018-09-03T14:42:47.297Z,5.60
2018-09-03T14:45:16.005Z,6.70
2018-09-03T14:47:44.403Z,11.08
2018-09-03T14:50:12.798Z,6.45
2018-09-03T14:52:41.446Z,7.45
2018-09-03T14:55:09.728Z,8.10
2018-09-03T14:57:38.038Z,5.37
2018-09-03T15:00:07.747Z,11.05
2018-09-03T15:02:36.104Z,11.28
2018-09-03T15:05:04.382Z,9.73
2018-09-03T15:07:33.654Z,8.95
2018-09-03T15:10:01.920Z,7.33
2018-09-03T15:12:30.282Z,8.53
2018-09-03T15:14:59.009Z,7.60
2018-09-03T15:17:27.252Z,12.37
2018-09-03T15:19:55.508Z,10.30
2018-09-03T15:22:24.143Z,9.28
2018-09-03T15:24:52.488Z,8.75
2018-09-03T15:27:20.778Z,12.93
2018-09-03T15:29:50.927Z,10.58
2018-09-03T15:32:19.191Z,16.32
2018-09-03T15:34:47.455Z,10.03
2018-09-03T15:37:15.798Z,8.20
2018-09-03T15:39:44.070Z,16.50
2018-09-03T15:42:12.455Z,9.93
2018-09-03T15:44:40.834Z,11.03
2018-09-03T15:47:09.099Z,10.80
2018-09-03T15:49:37.428Z,13.48
2018-09-03T15:52:07.047Z,13.20
2018-09-03T15:54:35.388Z,14.30
2018-09-03T15:57:03.652Z,14.40
2018-09-03T15:59:32.076Z,6.72
2018-09-03T16:02:00.417Z,13.10
2018-09-03T16:04:28.656Z,12.05
2018-09-03T16:06:57.323Z,9.00
2018-09-03T16:09:25.583Z,8.90
2018-09-03T16:11:53.908Z,14.65
2018-09-03T16:14:23.287Z,8.78
2018-09-03T16:16:51.658Z,9.60
2018-09-03T16:19:20.006Z,10.00
2018-09-03T16:21:48.331Z,6.28
2018-09-03T16:24:16.672Z,10.00
2018-09-03T16:26:44.899Z,10.03
2018-09-03T16:29:13.355Z,6.55
2018-09-03T16:31:42.760Z,10.95
2018-09-03T16:34:11.015Z,7.75
2018-09-03T16:36:39.611Z,9.65
2018-09-03T16:39:07.898Z,9.98
2018-09-03T16:41:36.226Z,8.08
2018-09-03T16:44:05.074Z,8.28
2018-09-03T16:46:33.394Z,6.65
2018-09-03T16:49:01.673Z,7.80
2018-09-03T16:51:30.918Z,6.55
2018-09-03T16:53:59.170Z,6.47
2018-09-03T16:56:27.588Z,5.90
2018-09-03T16:58:55.907Z,10.10
2018-09-03T17:01:24.394Z,6.85
2018-09-03T17:03:53.944Z,6.70
2018-09-03T17:06:22.272Z,12.45
2018-09-03T17:08:50.556Z,9.80
2018-09-03T17:11:18.747Z,11.35
2018-09-03T17:13:47.372Z,11.73
2018-09-03T17:16:15.719Z,15.40
2018-09-03T17:18:44.076Z,13.53
2018-09-03T17:21:13.419Z,9.18
2018-09-03T17:23:41.780Z,9.53
2018-09-03T17:26:10.023Z,8.48
2018-09-03T17:28:39.011Z,16.00
2018-09-03T17:31:07.239Z,12.88
2018-09-03T17:33:36.030Z,15.75
2018-09-03T17:36:04.634Z,10.98
2018-09-03T17:38:32.986Z,9.75
2018-09-03T17:41:01.232Z,13.98
2018-09-03T17:43:29.949Z,13.22
2018-09-03T17:45:58.429Z,11.33
2018-09-03T17:48:26.687Z,12.75
2018-09-03T17:50:58.012Z,18.23
2018-09-03T17:53:26.350Z,12.23
2018-09-03T17:55:54.618Z,14.85
2018-09-03T17:58:23.723Z,20.32
2018-09-03T18:00:51.982Z,16.87
2018-09-03T18:03:20.327Z,11.90
2018-09-03T18:05:49.061Z,15.58
2018-09-03T18:08:17.397Z,17.25
2018-09-03T18:10:45.654Z,18.35
2018-09-03T18:13:13.982Z,21.02
2018-09-03T18:15:42.418Z,19.25
2018-09-03T18:18:10.721Z,20.57
2018-09-03T18:20:39.877Z,18.48
2018-09-03T18:23:09.311Z,19.85
2018-09-03T18:25:37.678Z,21.42
2018-09-03T18:28:07.048Z,15.90
2018-09-03T18:30:35.369Z,14.18
2018-09-03T18:33:03.695Z,17.05
2018-09-03T18:35:32.934Z,22.20
2018-09-03T18:38:01.288Z,13.85
2018-09-03T18:40:29.543Z,22.07
2018-09-03T18:42:58.681Z,13.32
2018-09-03T18:45:26.930Z,11.50
2018-09-03T18:47:55.287Z,14.45
2018-09-03T18:50:23.972Z,15.40
2018-09-03T18:52:52.462Z,18.20
2018-09-03T18:55:20.976Z,12.88
2018-09-03T18:57:49.528Z,16.10
2018-09-03T19:00:17.868Z,10.55
2018-09-03T19:02:46.172Z,7.83
2018-09-03T19:05:14.793Z,13.88
2018-09-03T19:07:43.412Z,12.25
2018-09-03T19:10:11.685Z,13.43
2018-09-03T19:12:40.732Z,10.03
2018-09-03T19:15:09.179Z,11.57
2018-09-03T19:17:37.545Z,13.20
2018-09-03T19:20:06.743Z,10.13
2018-09-03T19:22:35.044Z,12.25
2018-09-03T19:25:03.421Z,9.48
2018-09-03T19:27:33.175Z,17.52
2018-09-03T19:30:01.439Z,9.55
2018-09-03T19:32:29.883Z,11.00
2018-09-03T19:34:58.178Z,9.60
2018-09-03T19:37:27.046Z,9.83
2018-09-03T19:39:55.658Z,11.90
2018-09-03T19:42:23.950Z,11.15
2018-09-03T19:44:52.381Z,11.50
2018-09-03T19:47:21.544Z,11.63
2018-09-03T19:49:49.824Z,11.25
2018-09-03T19:52:18.146Z,11.30
2018-09-03T19:54:46.678Z,9.93
2018-09-03T19:57:14.960Z,9.38
2018-09-03T19:59:43.332Z,9.13
2018-09-03T20:02:12.129Z,8.20
2018-09-03T20:04:42.395Z,7.87
2018-09-03T20:07:10.853Z,7.97
2018-09-03T20:09:39.117Z,9.83
2018-09-03T20:12:07.775Z,8.00
2018-09-03T20:14:36.354Z,8.05
2018-09-03T20:17:04.660Z,9.38
2018-09-03T20:19:33.324Z,9.80
2018-09-03T20:22:01.599Z,8.75
2018-09-03T20:24:29.866Z,12.85
2018-09-03T20:26:59.222Z,8.28
2018-09-03T20:29:27.492Z,10.45
2018-09-03T20:31:55.776Z,8.08
2018-09-03T20:34:24.511Z,7.00
2018-09-03T20:36:52.878Z,10.03
2018-09-03T20:39:22.014Z,8.95
2018-09-03T20:41:50.287Z,6.55
2018-09-03T20:44:18.546Z,7.80
2018-09-03T20:46:46.797Z,8.15
2018-09-03T20:49:16.034Z,8.40
2018-09-03T20:51:45.188Z,9.38
2018-09-03T20:54:13.468Z,12.70
2018-09-03T20:56:42.356Z,9.20
2018-09-03T20:59:10.687Z,6.20
2018-09-03T21:01:38.978Z,9.08
2018-09-03T21:04:07.610Z,7.90
2018-09-03T21:06:35.938Z,7.75
2018-09-03T21:09:05.234Z,7.05
2018-09-03T21:11:33.999Z,8.48
2018-09-03T21:14:02.422Z,7.00
2018-09-03T21:16:30.723Z,6.17
2018-09-03T21:18:59.138Z,5.55
2018-09-03T21:21:27.468Z,6.75
2018-09-03T21:23:55.790Z,6.62
2018-09-03T21:26:25.596Z,6.08
2018-09-03T21:28:53.952Z,6.15
2018-09-03T21:31:22.182Z,6.75
2018-09-03T21:33:50.487Z,4.85
2018-09-03T21:36:18.730Z,5.53
2018-09-03T21:38:46.979Z,8.80
2018-09-03T21:41:16.102Z,6.65
2018-09-03T21:43:44.436Z,7.55
2018-09-03T21:46:12.774Z,6.83
2018-09-03T21:48:41.415Z,5.62
2018-09-03T21:51:09.661Z,6.03
2018-09-03T21:53:37.897Z,4.83
2018-09-03T21:56:06.471Z,6.55
2018-09-03T21:58:34.858Z,6.87
2018-09-03T22:01:03.175Z,6.15
2018-09-03T22:03:31.471Z,4.55
2018-09-03T22:05:59.706Z,5.10
2018-09-03T22:08:27.946Z,5.35
2018-09-03T22:10:57.031Z,4.62
2018-09-03T22:13:25.363Z,6.75
2018-09-03T22:15:53.673Z,6.55
2018-09-03T22:18:22.303Z,5.70
2018-09-03T22:20:50.550Z,4.22
2018-09-03T22:23:18.794Z,5.92
2018-09-03T22:25:47.673Z,6.33
2018-09-03T22:28:16.002Z,4.80
2018-09-03T22:30:44.235Z,5.03
2018-09-03T22:33:14.902Z,6.87
2018-09-03T22:35:43.206Z,4.55
2018-09-03T22:38:11.512Z,4.83
2018-09-03T22:40:40.045Z,4.47
2018-09-03T22:43:09.453Z,4.12
2018-09-03T22:45:37.695Z,4.25
2018-09-03T22:48:06.406Z,4.55
2018-09-03T22:50:34.763Z,5.33
2018-09-03T22:53:03.161Z,5.67
2018-09-03T22:55:32.603Z,4.83
2018-09-03T22:58:00.948Z,4.70
2018-09-03T23:00:29.331Z,5.97
2018-09-03T23:02:57.646Z,4.42
2018-09-03T23:05:27.549Z,5.20
2018-09-03T23:07:55.828Z,5.50
2018-09-03T23:10:24.484Z,5.45
2018-09-03T23:12:52.753Z,9.30
2018-09-03T23:15:21.081Z,4.10
2018-09-03T23:17:49.739Z,5.65
2018-09-03T23:20:17.963Z,4.83
2018-09-03T23:22:46.212Z,6.35
2018-09-03T23:25:15.679Z,3.87
2018-09-03T23:27:44.058Z,4.95
2018-09-03T23:30:12.287Z,4.67
2018-09-03T23:32:40.926Z,4.35
2018-09-03T23:35:09.215Z,4.72
2018-09-03T23:37:37.542Z,3.85
2018-09-03T23:40:06.778Z,5.97
2018-09-03T23:42:34.990Z,4.37
2018-09-03T23:45:03.871Z,6.78
2018-09-03T23:47:32.328Z,5.05
2018-09-03T23:50:00.558Z,4.45
2018-09-03T23:52:28.876Z,3.70
2018-09-03T23:54:57.445Z,3.47
2018-09-03T23:57:25.765Z,4.70
2018-09-03T23:59:53.997Z,4.92
